Time;durP1;ratioP1;P1;durP2;ratioP2;P2;SDS_P1;SDS_P2;PMS_P1;PMS_P2;Temp;Humidity;BMP_temperature;BMP_pressure;BME280_temperature;BME280_humidity;BME280_pressure;Samples;Min_cycle;Max_cycle;Signal;HPM_P1;HPM_P2
2021/06/02 00:03:51;;;;;;;10.45;5.50;;;20.70;52.70;;;;;;21087553;28;20052;-52
2021/06/02 00:13:54;;;;;;;9.07;5.80;;;20.60;53.10;;;;;;21086527;28;20150;-55
2021/06/02 00:23:56;;;;;;;9.10;5.85;;;20.50;53.20;;;;;;21085844;28;20380;-54
2021/06/02 00:33:57;;;;;;;9.13;5.80;;;20.50;53.30;;;;;;21085388;28;20400;-53
2021/06/02 00:43:59;;;;;;;7.50;4.47;;;20.50;53.50;;;;;;21084694;28;20059;-54
2021/06/02 00:54:00;;;;;;;15.18;6.90;;;20.40;53.80;;;;;;21083779;28;20044;-52
2021/06/02 01:04:04;;;;;;;6.68;4.63;;;20.40;53.70;;;;;;21082285;28;20493;-52
2021/06/02 01:14:06;;;;;;;8.73;4.43;;;20.20;54.40;;;;;;21081944;28;20051;-54
2021/06/02 01:24:08;;;;;;;9.70;5.35;;;20.00;54.70;;;;;;21081268;28;20080;-53
2021/06/02 01:34:49;;;;;;;6.28;4.60;;;19.90;54.80;;;;;;21079205;28;20224;-54
2021/06/02 01:45:17;;;;;;;9.20;5.00;;;19.80;54.80;;;;;;21080149;28;20136;-53
2021/06/02 01:55:57;;;;;;;8.32;5.70;;;19.70;55.30;;;;;;21079576;28;20098;-54
2021/06/02 02:06:01;;;;;;;7.68;4.72;;;19.70;55.30;;;;;;21078873;28;20467;-54
2021/06/02 02:16:22;;;;;;;9.30;5.18;;;19.40;56.50;;;;;;21078745;28;20048;-54
2021/06/02 02:26:35;;;;;;;9.80;5.28;;;19.40;56.40;;;;;;21079194;28;20090;-53
2021/06/02 02:36:42;;;;;;;9.77;5.22;;;19.40;56.60;;;;;;21077773;28;20120;-54
2021/06/02 02:46:56;;;;;;;10.27;5.57;;;19.20;56.90;;;;;;21090605;28;20132;-53
2021/06/02 02:57:18;;;;;;;8.55;6.35;;;19.10;57.30;;;;;;21092849;28;20136;-53
2021/06/02 03:07:22;;;;;;;8.98;5.95;;;19.00;57.40;;;;;;21092098;28;20135;-53
2021/06/02 03:17:40;;;;;;;7.90;5.55;;;18.90;57.70;;;;;;21091245;28;20097;-53
2021/06/02 03:28:13;;;;;;;12.02;6.20;;;18.80;57.90;;;;;;21090548;28;20048;-53
2021/06/02 03:38:30;;;;;;;7.15;5.40;;;18.60;58.50;;;;;;21088291;28;20130;-52
2021/06/02 03:48:57;;;;;;;6.40;5.68;;;18.40;58.90;;;;;;21089395;28;20044;-54
2021/06/02 03:59:04;;;;;;;9.55;6.20;;;18.20;59.50;;;;;;21087549;28;20060;-53
2021/06/02 04:09:11;;;;;;;11.50;6.70;;;18.20;59.70;;;;;;21087231;28;20127;-52
2021/06/02 04:19:16;;;;;;;14.57;8.50;;;18.30;59.60;;;;;;21086437;28;20133;-53
2021/06/02 04:29:18;;;;;;;9.45;6.78;;;18.10;60.10;;;;;;21085983;28;20123;-54
2021/06/02 04:39:22;;;;;;;10.60;7.22;;;17.90;60.40;;;;;;21084727;28;20105;-53
2021/06/02 04:49:38;;;;;;;14.87;8.30;;;17.70;61.00;;;;;;21084409;28;20133;-54
2021/06/02 05:00:19;;;;;;;12.50;7.60;;;17.70;61.30;;;;;;21081723;28;20091;-55
2021/06/02 05:10:54;;;;;;;14.48;8.48;;;17.70;61.00;;;;;;21081606;28;20080;-59
2021/06/02 05:31:52;;;;;;;15.80;7.10;;;17.70;61.30;;;;;;21081427;28;20496;-53
2021/06/02 05:42:03;;;;;;;15.85;9.02;;;17.70;61.30;;;;;;21096009;28;20139;-57
2021/06/02 05:52:34;;;;;;;15.85;9.00;;;17.70;61.70;;;;;;21060517;28;20097;-54
2021/06/02 06:02:56;;;;;;;14.95;8.75;;;17.80;61.40;;;;;;21064865;28;20110;-53
2021/06/02 06:13:19;;;;;;;18.92;10.55;;;17.80;61.70;;;;;;21078623;28;20087;-54
2021/06/02 06:23:46;;;;;;;21.03;10.63;;;18.00;61.00;;;;;;21095530;28;20403;-54
2021/06/02 06:33:50;;;;;;;14.70;9.75;;;18.20;60.80;;;;;;21094904;28;20503;-55
2021/06/02 06:43:54;;;;;;;26.42;9.88;;;18.20;60.50;;;;;;21094173;28;20082;-56
2021/06/02 06:53:57;;;;;;;16.23;9.05;;;18.40;60.30;;;;;;21093021;28;20098;-54
2021/06/02 07:04:00;;;;;;;12.97;8.47;;;18.90;59.30;;;;;;21092039;28;20109;-54
2021/06/02 07:14:01;;;;;;;35.97;10.63;;;19.50;57.30;;;;;;21091330;28;20040;-54
2021/06/02 07:24:03;;;;;;;28.42;9.45;;;20.20;55.70;;;;;;21090044;28;20054;-52
2021/06/02 07:34:06;;;;;;;15.67;8.97;;;20.70;54.20;;;;;;21088634;28;20083;-55
2021/06/02 07:44:07;;;;;;;21.33;11.73;;;21.20;52.90;;;;;;21089131;28;20048;-53
2021/06/02 07:54:10;;;;;;;81.43;13.35;;;21.90;51.40;;;;;;21089430;28;20320;-53
2021/06/02 08:04:11;;;;;;;24.67;11.40;;;22.50;50.10;;;;;;21069098;28;20083;-53
2021/06/02 08:14:13;;;;;;;11.15;7.85;;;23.30;47.50;;;;;;21087187;28;20090;-54
2021/06/02 08:24:14;;;;;;;26.17;8.47;;;23.30;48.00;;;;;;21068216;28;20182;-54
2021/06/02 08:34:16;;;;;;;12.85;7.95;;;23.60;47.20;;;;;;21084987;28;20478;-55
2021/06/02 08:44:19;;;;;;;;;;;23.90;46.50;;;;;;21083553;28;20143;-54
2021/06/02 08:54:23;;;;;;;8.48;7.07;;;24.00;46.50;;;;;;21083357;28;20337;-53
2021/06/02 09:04:25;;;;;;;13.57;8.48;;;24.50;45.30;;;;;;21082218;28;20160;-53
2021/06/02 09:14:28;;;;;;;12.35;7.47;;;24.60;45.00;;;;;;21081095;28;20036;-53
2021/06/02 09:25:04;;;;;;;14.82;7.40;;;24.70;44.80;;;;;;21062885;28;20084;-53
2021/06/02 09:35:06;;;;;;;7.47;5.40;;;25.10;43.40;;;;;;21082154;28;20385;-51
2021/06/02 09:45:10;;;;;;;10.02;5.43;;;25.00;45.00;;;;;;21074736;28;20079;-50
2021/06/02 09:55:16;;;;;;;8.55;5.32;;;25.40;43.80;;;;;;21066680;28;20123;-50
2021/06/02 10:05:17;;;;;;;13.18;6.32;;;25.50;43.30;;;;;;21075977;28;20056;-51
2021/06/02 10:15:29;;;;;;;9.05;7.10;;;25.60;42.30;;;;;;21077502;28;20080;-52
2021/06/02 10:25:30;;;;;;;11.27;6.13;;;25.80;41.00;;;;;;21075888;28;20067;-51
2021/06/02 10:35:31;;;;;;;10.03;5.77;;;25.60;41.30;;;;;;21077247;28;20484;-50
2021/06/02 10:45:38;;;;;;;11.70;5.80;;;25.60;41.80;;;;;;21076291;28;20444;-50
2021/06/02 10:55:42;;;;;;;12.13;5.40;;;25.60;42.40;;;;;;21075370;28;20079;-50
2021/06/02 11:05:44;;;;;;;86.30;18.02;;;25.60;42.50;;;;;;21077627;28;20091;-51
2021/06/02 11:15:47;;;;;;;50.67;9.90;;;25.40;40.90;;;;;;21174155;28;20047;-56
2021/06/02 11:25:49;;;;;;;42.65;7.85;;;25.40;40.30;;;;;;21173034;28;20457;-53
2021/06/02 11:35:53;;;;;;;;;;;25.50;40.70;;;;;;21173128;28;20539;-54
2021/06/02 11:45:59;;;;;;;16.20;6.70;;;25.40;40.30;;;;;;21154214;28;19919;-53
2021/06/02 11:56:00;;;;;;;11.65;5.18;;;26.00;37.50;;;;;;21129227;28;20044;-53
2021/06/02 12:06:04;;;;;;;11.50;5.00;;;26.10;37.70;;;;;;21086810;28;20083;-54
2021/06/02 12:16:12;;;;;;;12.85;5.75;;;26.20;36.30;;;;;;21086042;28;20051;-54
2021/06/02 12:26:21;;;;;;;34.50;6.88;;;26.20;36.10;;;;;;21085263;28;20182;-53
2021/06/02 12:36:22;;;;;;;11.63;5.35;;;26.30;36.80;;;;;;21084259;28;20091;-54
2021/06/02 12:46:25;;;;;;;21.90;6.55;;;26.70;35.50;;;;;;21083907;28;20093;-52
2021/06/02 12:56:27;;;;;;;18.88;4.85;;;26.70;35.00;;;;;;21082919;28;20044;-54
2021/06/02 13:06:30;;;;;;;9.40;4.97;;;27.10;33.70;;;;;;21081871;28;20048;-53
2021/06/02 13:16:32;;;;;;;7.30;3.95;;;27.20;33.40;;;;;;21081655;28;20098;-55
2021/06/02 13:26:33;;;;;;;8.07;4.68;;;27.20;33.00;;;;;;21080744;28;20113;-54
2021/06/02 13:36:42;;;;;;;24.58;6.28;;;27.10;32.20;;;;;;21080262;28;20139;-53
2021/06/02 13:46:45;;;;;;;28.38;5.65;;;27.30;32.30;;;;;;21079400;28;20182;-53
2021/06/02 13:57:10;;;;;;;44.35;6.60;;;27.40;32.70;;;;;;21078206;28;20449;-53
2021/06/02 14:07:14;;;;;;;23.10;4.60;;;27.40;32.00;;;;;;21077612;28;20094;-54
2021/06/02 14:17:17;;;;;;;13.52;4.13;;;27.60;31.90;;;;;;21077574;28;20083;-52
2021/06/02 14:27:19;;;;;;;67.45;6.72;;;27.30;31.90;;;;;;21077173;28;20532;-52
2021/06/02 14:37:20;;;;;;;27.40;4.80;;;27.30;31.60;;;;;;21083006;28;20098;-52
2021/06/02 14:47:21;;;;;;;;;;;27.30;30.90;;;;;;21093690;28;20063;-54
2021/06/02 14:57:22;;;;;;;69.93;8.17;;;27.30;31.50;;;;;;21092655;28;19927;-54
2021/06/02 15:07:23;;;;;;;;;;;27.40;30.40;;;;;;21092873;28;20136;-55
2021/06/02 15:17:25;;;;;;;21.37;5.67;;;27.20;30.60;;;;;;21092121;28;20007;-55
2021/06/02 15:27:28;;;;;;;15.68;4.68;;;27.40;30.90;;;;;;21090792;28;20181;-52
2021/06/02 15:37:31;;;;;;;25.70;4.68;;;27.30;31.20;;;;;;21089786;28;20048;-50
2021/06/02 15:47:32;;;;;;;16.33;4.15;;;27.20;31.10;;;;;;21088680;28;20141;-50
2021/06/02 15:57:33;;;;;;;;;;;27.30;30.90;;;;;;21088363;28;20083;-49
2021/06/02 16:07:35;;;;;;;7.10;3.63;;;27.20;30.90;;;;;;21084150;28;19920;-50
2021/06/02 16:17:36;;;;;;;;;;;27.30;30.30;;;;;;21084772;28;20090;-49
2021/06/02 16:27:38;;;;;;;19.60;3.90;;;27.30;30.50;;;;;;21081594;28;20312;-51
2021/06/02 16:37:40;;;;;;;6.70;3.25;;;27.40;30.30;;;;;;21084028;28;20088;-49
2021/06/02 16:47:42;;;;;;;4.22;3.08;;;27.60;30.10;;;;;;21083231;28;20123;-49
2021/06/02 16:57:44;;;;;;;38.95;5.95;;;27.50;30.20;;;;;;21097438;28;20048;-50
2021/06/02 17:07:45;;;;;;;5.55;3.22;;;27.50;30.80;;;;;;21165111;28;20071;-50
2021/06/02 17:17:51;;;;;;;7.25;3.22;;;27.60;30.40;;;;;;21146261;28;20131;-54
2021/06/02 17:27:53;;;;;;;16.98;5.68;;;27.90;30.30;;;;;;21162511;28;20094;-48
2021/06/02 17:37:55;;;;;;;8.32;3.45;;;27.90;30.10;;;;;;21069104;28;20094;-49
2021/06/02 17:47:57;;;;;;;8.05;3.20;;;27.80;30.30;;;;;;21078824;28;20060;-50
2021/06/02 17:57:59;;;;;;;4.65;3.30;;;27.60;30.30;;;;;;21138391;28;20184;-50
2021/06/02 18:08:01;;;;;;;6.80;3.40;;;27.50;30.90;;;;;;21161778;28;20138;-50
2021/06/02 18:18:45;;;;;;;11.13;4.18;;;27.40;30.70;;;;;;21161743;28;20073;-51
2021/06/02 18:28:49;;;;;;;16.05;6.38;;;27.50;30.80;;;;;;21159877;28;20083;-50
2021/06/02 18:38:50;;;;;;;6.60;3.25;;;27.30;31.00;;;;;;21159505;28;20467;-48
2021/06/02 18:48:52;;;;;;;5.95;3.70;;;27.30;30.80;;;;;;21142496;28;20143;-51
2021/06/02 18:58:53;;;;;;;8.05;4.38;;;27.20;31.00;;;;;;21160468;28;20136;-51
2021/06/02 19:08:54;;;;;;;11.77;4.05;;;27.00;31.50;;;;;;21159581;28;20075;-51
2021/06/02 19:18:56;;;;;;;13.50;4.47;;;27.00;31.50;;;;;;21160368;28;20074;-54
2021/06/02 19:28:58;;;;;;;7.68;4.53;;;26.90;31.90;;;;;;21172105;28;20094;-53
2021/06/02 19:39:00;;;;;;;6.57;4.03;;;26.80;32.20;;;;;;21174818;28;20510;-55
2021/06/02 19:49:01;;;;;;;9.15;4.65;;;26.60;32.50;;;;;;21173885;28;20055;-57
2021/06/02 19:59:03;;;;;;;12.45;5.18;;;26.50;33.20;;;;;;21155096;28;20098;-53
2021/06/02 20:09:04;;;;;;;11.43;5.20;;;26.20;33.50;;;;;;21172135;28;20123;-54
2021/06/02 20:19:08;;;;;;;7.72;4.15;;;26.10;34.00;;;;;;21171372;28;20092;-56
2021/06/02 20:29:16;;;;;;;9.73;4.72;;;26.00;34.40;;;;;;21170882;28;20039;-58
2021/06/02 20:39:21;;;;;;;7.37;4.80;;;25.80;34.80;;;;;;21169781;28;20051;-54
2021/06/02 20:49:23;;;;;;;9.88;7.28;;;25.60;35.20;;;;;;21169648;28;20495;-55
2021/06/02 20:59:26;;;;;;;9.52;5.05;;;25.50;35.60;;;;;;21168192;28;20147;-53
2021/06/02 21:09:27;;;;;;;6.45;4.60;;;25.30;36.10;;;;;;21167461;28;20079;-57
2021/06/02 21:19:28;;;;;;;13.60;8.53;;;25.10;36.50;;;;;;21167148;28;20511;-58
2021/06/02 21:29:29;;;;;;;8.13;5.10;;;25.00;36.70;;;;;;21166401;28;20362;-58
2021/06/02 21:39:31;;;;;;;8.53;4.80;;;24.80;37.40;;;;;;21165552;28;20126;-56
2021/06/02 21:49:32;;;;;;;6.93;4.55;;;24.70;38.50;;;;;;21163524;28;20122;-57
2021/06/02 21:59:34;;;;;;;9.57;4.90;;;24.40;39.50;;;;;;21163898;28;20059;-55
2021/06/02 22:09:35;;;;;;;8.83;4.63;;;24.20;40.00;;;;;;21164153;28;20136;-57
2021/06/02 22:19:37;;;;;;;7.03;5.13;;;24.20;40.10;;;;;;21163338;28;20460;-53
2021/06/02 22:29:38;;;;;;;7.53;4.87;;;24.10;40.20;;;;;;21162280;28;20039;-56
2021/06/02 22:39:39;;;;;;;9.57;5.17;;;23.90;40.80;;;;;;21162268;28;20058;-53
2021/06/02 22:49:41;;;;;;;9.77;5.40;;;23.80;41.50;;;;;;21161770;28;20058;-55
2021/06/02 22:59:42;;;;;;;6.30;4.90;;;23.60;41.20;;;;;;21167137;28;20048;-55
2021/06/02 23:09:43;;;;;;;10.20;5.13;;;23.40;41.60;;;;;;21176547;28;20066;-54
2021/06/02 23:19:45;;;;;;;11.43;5.50;;;23.20;41.90;;;;;;21176047;28;20043;-55
2021/06/02 23:29:46;;;;;;;7.70;5.20;;;23.10;42.40;;;;;;21175158;28;20039;-56
2021/06/02 23:39:48;;;;;;;9.23;5.10;;;23.20;42.00;;;;;;21174367;28;20047;-57
2021/06/02 23:49:49;;;;;;;13.13;4.57;;;23.20;41.80;;;;;;21174021;28;20074;-54
2021/06/02 23:59:50;;;;;;;9.38;4.10;;;23.30;43.10;;;;;;21173294;28;20051;-55
